Battle Harbour, Canada
Current Conditions -  °F | °C
As of 1:00 AM on Thursday 27 Nov 2014 (Local Time) from CYMH Reporting Station
Overcast Overcast  
Wind Chill: 15°   Ceiling: 2600
Heat Index: 23°   Visibility: 9mi
Dew Point: 16°   Wind: 7mph
Humidity: 74%   Direction: 270°W
Pressure: 30.13"   Gusts: NA
Location:  52.27°N, 55.58°W
Report Text: CYMH 270500Z AUTO 27006KT 9SM OVC026 M05/M09 A3013 RMK SLP204
Loading
Personal Weather Stations






























Interactive Weather Map New forecast layout! Learn more

10-Day Weather Forecast

Advertisements
Track Severe Weather on mobile